Terminal Aerodrome Forecast
Issued by NWS Buffalo, NY

Home | Current Version | Previous Version | Text Only | Print | Product List | Glossary On
Versions: 1 2 3 4 5 6 7 8 9 10 11 12 13 14 15 16 17 18 19 20 21 22 23 24 25 26 27
000
FTUS41 KBUF 012300
TAFART
TAF
KART 012337Z 0200/0224 VRB03KT P6SM BKN150
     FM021000 22007KT P6SM BKN015
     FM021300 23008KT P6SM BKN080
     FM021800 24010KT P6SM VCSH BKN050
     FM022000 24009KT 6SM -SHRA VCTS OVC060CB
     FM022300 25004KT P6SM VCSH BKN070=

USA.gov is the U.S. government's official web portal to all federal, state and local government web resources and services.